This is the latest recevied weather packets stored in our database for station/object E24CR-1. If no packets are shown the sender has not sent any weather packets the latest 10 day(s).
| Time | Temp. | Humidity | Pressure | Rain* | Wind** | Luminosity | Snow |
|---|---|---|---|---|---|---|---|
| 1777873312 | 38.33° C | 27% | 952 hPa | - | - | 0 W/m² | - |
| 1777872688 | 38.89° C | 26% | 952 hPa | - | - | 0 W/m² | - |
| 1777872063 | 41.11° C | 26% | 952 hPa | - | - | 0 W/m² | - |
| 1777871439 | 39.44° C | 27% | 952 hPa | - | - | 0 W/m² | - |
| 1777870815 | 38.89° C | 29% | 952 hPa | - | - | 0 W/m² | - |
| 1777870191 | 37.22° C | 31% | 953 hPa | - | - | 0 W/m² | - |
| 1777869566 | 37.22° C | 32% | 953 hPa | - | - | 0 W/m² | - |
| 1777868942 | 38.33° C | 32% | 953 hPa | - | - | 0 W/m² | - |
| 1777868318 | 37.22° C | 33% | 953 hPa | - | - | 0 W/m² | - |
| 1777867694 | 36.67° C | 34% | 953 hPa | - | - | 0 W/m² | - |
| 1777867069 | 36.11° C | 35% | 953 hPa | - | - | 0 W/m² | - |
| 1777866445 | 37.22° C | 33% | 953 hPa | - | - | 0 W/m² | - |
| 1777865820 | 36.11° C | 35% | 953 hPa | - | - | 0 W/m² | - |
| 1777865196 | 36.67° C | 35% | 953 hPa | - | - | 0 W/m² | - |
| 1777864572 | 34.44° C | 40% | 953 hPa | - | - | 0 W/m² | - |
| 1777863948 | 33.89° C | 41% | 953 hPa | - | - | 0 W/m² | - |
| 1777863324 | 33.89° C | 38% | 953 hPa | - | - | 0 W/m² | - |
| 1777862700 | 33.33° C | 42% | 953 hPa | - | - | 0 W/m² | - |
| 1777862075 | 33.33° C | 42% | 954 hPa | - | - | 0 W/m² | - |
| 1777861451 | 33.89° C | 39% | 954 hPa | - | - | 0 W/m² | - |
| 1777860827 | 33.33° C | 42% | 954 hPa | - | - | 0 W/m² | - |
| 1777860203 | 33.89° C | 43% | 953 hPa | - | - | 0 W/m² | - |
| 1777859579 | 33.33° C | 44% | 953 hPa | - | - | 0 W/m² | - |
| 1777858955 | 32.22° C | 47% | 953 hPa | - | - | 0 W/m² | - |
| 1777858330 | 31.67° C | 48% | 953 hPa | - | - | 0 W/m² | - |
* Rain since midnight (hover to see other rain measurements)
** Current wind speed in m/s (hover to see current wind gust speed)